sensor_id;sensor_type;location;lat;lon;timestamp;P1;durP1;ratioP1;P2;durP2;ratioP2
37831;SDS011;23671;38.090;-122.570;2023-04-29T00:01:29;1.98;;;0.98;;
37831;SDS011;23671;38.090;-122.570;2023-04-29T00:03:56;0.95;;;0.80;;
37831;SDS011;23671;38.090;-122.570;2023-04-29T00:06:23;1.65;;;0.68;;
37831;SDS011;23671;38.090;-122.570;2023-04-29T00:08:50;1.30;;;0.60;;
37831;SDS011;23671;38.090;-122.570;2023-04-29T00:11:17;1.65;;;0.88;;
37831;SDS011;23671;38.090;-122.570;2023-04-29T00:13:44;1.73;;;0.68;;
37831;SDS011;23671;38.090;-122.570;2023-04-29T00:16:11;1.65;;;0.70;;
37831;SDS011;23671;38.090;-122.570;2023-04-29T00:18:39;2.30;;;0.85;;
37831;SDS011;23671;38.090;-122.570;2023-04-29T00:21:06;0.80;;;0.63;;
37831;SDS011;23671;38.090;-122.570;2023-04-29T00:23:33;2.80;;;0.80;;
37831;SDS011;23671;38.090;-122.570;2023-04-29T00:26:01;2.60;;;0.93;;
37831;SDS011;23671;38.090;-122.570;2023-04-29T00:28:28;1.38;;;0.70;;
37831;SDS011;23671;38.090;-122.570;2023-04-29T00:30:55;1.92;;;0.70;;
37831;SDS011;23671;38.090;-122.570;2023-04-29T00:33:22;1.65;;;0.80;;
37831;SDS011;23671;38.090;-122.570;2023-04-29T00:35:49;2.20;;;0.85;;
37831;SDS011;23671;38.090;-122.570;2023-04-29T00:38:19;6.03;;;1.00;;
37831;SDS011;23671;38.090;-122.570;2023-04-29T00:40:46;1.25;;;0.70;;
37831;SDS011;23671;38.090;-122.570;2023-04-29T00:43:14;1.20;;;0.70;;
37831;SDS011;23671;38.090;-122.570;2023-04-29T00:45:41;2.67;;;1.30;;
37831;SDS011;23671;38.090;-122.570;2023-04-29T00:48:08;3.90;;;0.70;;
37831;SDS011;23671;38.090;-122.570;2023-04-29T00:50:35;3.20;;;0.60;;
37831;SDS011;23671;38.090;-122.570;2023-04-29T00:53:02;2.15;;;0.65;;
37831;SDS011;23671;38.090;-122.570;2023-04-29T00:55:30;1.37;;;0.70;;
37831;SDS011;23671;38.090;-122.570;2023-04-29T00:58:01;1.83;;;0.73;;
37831;SDS011;23671;38.090;-122.570;2023-04-29T01:00:28;2.35;;;0.70;;
37831;SDS011;23671;38.090;-122.570;2023-04-29T01:02:56;1.55;;;0.60;;
37831;SDS011;23671;38.090;-122.570;2023-04-29T01:05:23;1.40;;;0.70;;
37831;SDS011;23671;38.090;-122.570;2023-04-29T01:07:55;1.27;;;0.53;;
37831;SDS011;23671;38.090;-122.570;2023-04-29T01:10:40;0.95;;;0.60;;
37831;SDS011;23671;38.090;-122.570;2023-04-29T01:16:18;2.35;;;0.68;;
37831;SDS011;23671;38.090;-122.570;2023-04-29T01:19:03;1.33;;;0.60;;
37831;SDS011;23671;38.090;-122.570;2023-04-29T01:21:47;0.95;;;0.50;;
37831;SDS011;23671;38.090;-122.570;2023-04-29T01:24:14;1.08;;;0.50;;
37831;SDS011;23671;38.090;-122.570;2023-04-29T01:26:43;1.58;;;0.50;;
37831;SDS011;23671;38.090;-122.570;2023-04-29T01:32:20;1.30;;;0.90;;
37831;SDS011;23671;38.090;-122.570;2023-04-29T01:35:10;0.52;;;0.52;;
37831;SDS011;23671;38.090;-122.570;2023-04-29T01:40:30;1.02;;;0.50;;
37831;SDS011;23671;38.090;-122.570;2023-04-29T01:43:13;1.42;;;0.70;;
37831;SDS011;23671;38.090;-122.570;2023-04-29T01:45:42;2.03;;;0.40;;
37831;SDS011;23671;38.090;-122.570;2023-04-29T01:48:09;1.25;;;0.47;;
37831;SDS011;23671;38.090;-122.570;2023-04-29T01:50:37;0.88;;;0.60;;
37831;SDS011;23671;38.090;-122.570;2023-04-29T01:53:04;0.70;;;0.55;;
37831;SDS011;23671;38.090;-122.570;2023-04-29T01:55:32;2.63;;;0.60;;
37831;SDS011;23671;38.090;-122.570;2023-04-29T01:58:01;1.40;;;0.60;;
37831;SDS011;23671;38.090;-122.570;2023-04-29T02:00:28;0.50;;;0.50;;
37831;SDS011;23671;38.090;-122.570;2023-04-29T02:02:55;0.93;;;0.45;;
37831;SDS011;23671;38.090;-122.570;2023-04-29T02:05:22;0.98;;;0.70;;
37831;SDS011;23671;38.090;-122.570;2023-04-29T02:07:49;4.13;;;0.80;;
37831;SDS011;23671;38.090;-122.570;2023-04-29T02:10:16;2.03;;;0.57;;
37831;SDS011;23671;38.090;-122.570;2023-04-29T02:12:43;1.60;;;0.40;;
37831;SDS011;23671;38.090;-122.570;2023-04-29T02:15:10;0.55;;;0.40;;
37831;SDS011;23671;38.090;-122.570;2023-04-29T02:17:38;1.45;;;0.73;;
37831;SDS011;23671;38.090;-122.570;2023-04-29T02:20:05;0.98;;;0.50;;
37831;SDS011;23671;38.090;-122.570;2023-04-29T02:22:34;0.68;;;0.50;;
37831;SDS011;23671;38.090;-122.570;2023-04-29T02:25:01;1.75;;;0.70;;
37831;SDS011;23671;38.090;-122.570;2023-04-29T02:27:28;1.80;;;0.52;;
37831;SDS011;23671;38.090;-122.570;2023-04-29T02:29:55;1.40;;;0.63;;
37831;SDS011;23671;38.090;-122.570;2023-04-29T02:32:23;0.80;;;0.50;;
37831;SDS011;23671;38.090;-122.570;2023-04-29T02:34:50;2.40;;;0.60;;
37831;SDS011;23671;38.090;-122.570;2023-04-29T02:37:17;0.93;;;0.45;;
37831;SDS011;23671;38.090;-122.570;2023-04-29T02:39:44;2.50;;;0.55;;
37831;SDS011;23671;38.090;-122.570;2023-04-29T02:42:11;0.85;;;0.50;;
37831;SDS011;23671;38.090;-122.570;2023-04-29T02:44:38;1.75;;;0.52;;
37831;SDS011;23671;38.090;-122.570;2023-04-29T02:47:06;0.98;;;0.50;;
37831;SDS011;23671;38.090;-122.570;2023-04-29T02:49:33;2.03;;;0.60;;
37831;SDS011;23671;38.090;-122.570;2023-04-29T02:52:01;2.75;;;0.45;;
37831;SDS011;23671;38.090;-122.570;2023-04-29T02:54:28;0.83;;;0.43;;
37831;SDS011;23671;38.090;-122.570;2023-04-29T02:56:56;1.00;;;0.47;;
37831;SDS011;23671;38.090;-122.570;2023-04-29T02:59:23;0.75;;;0.57;;
37831;SDS011;23671;38.090;-122.570;2023-04-29T03:01:50;0.90;;;0.50;;
37831;SDS011;23671;38.090;-122.570;2023-04-29T03:04:18;0.93;;;0.40;;
37831;SDS011;23671;38.090;-122.570;2023-04-29T03:06:46;1.58;;;1.00;;
37831;SDS011;23671;38.090;-122.570;2023-04-29T03:09:13;5.18;;;4.68;;
37831;SDS011;23671;38.090;-122.570;2023-04-29T03:11:40;4.55;;;2.90;;
37831;SDS011;23671;38.090;-122.570;2023-04-29T03:14:07;4.05;;;3.70;;
37831;SDS011;23671;38.090;-122.570;2023-04-29T03:16:34;4.38;;;2.47;;
37831;SDS011;23671;38.090;-122.570;2023-04-29T03:19:01;3.38;;;2.80;;
37831;SDS011;23671;38.090;-122.570;2023-04-29T03:21:28;5.30;;;3.25;;
37831;SDS011;23671;38.090;-122.570;2023-04-29T03:23:55;3.58;;;2.67;;
37831;SDS011;23671;38.090;-122.570;2023-04-29T03:26:25;4.50;;;3.65;;
37831;SDS011;23671;38.090;-122.570;2023-04-29T03:28:52;4.35;;;2.75;;
37831;SDS011;23671;38.090;-122.570;2023-04-29T03:31:19;3.10;;;2.58;;
37831;SDS011;23671;38.090;-122.570;2023-04-29T03:33:47;3.17;;;2.87;;
37831;SDS011;23671;38.090;-122.570;2023-04-29T03:36:15;2.65;;;2.45;;
37831;SDS011;23671;38.090;-122.570;2023-04-29T03:38:42;3.83;;;2.42;;
37831;SDS011;23671;38.090;-122.570;2023-04-29T03:41:09;2.58;;;2.38;;
37831;SDS011;23671;38.090;-122.570;2023-04-29T03:43:36;2.50;;;2.08;;
37831;SDS011;23671;38.090;-122.570;2023-04-29T03:46:03;2.33;;;2.10;;
37831;SDS011;23671;38.090;-122.570;2023-04-29T03:48:30;3.40;;;2.33;;
37831;SDS011;23671;38.090;-122.570;2023-04-29T03:50:57;2.60;;;2.33;;
37831;SDS011;23671;38.090;-122.570;2023-04-29T03:53:24;2.72;;;2.20;;
37831;SDS011;23671;38.090;-122.570;2023-04-29T03:55:52;3.35;;;1.88;;
37831;SDS011;23671;38.090;-122.570;2023-04-29T03:58:19;2.65;;;1.77;;
37831;SDS011;23671;38.090;-122.570;2023-04-29T04:00:47;2.42;;;1.85;;
37831;SDS011;23671;38.090;-122.570;2023-04-29T04:03:14;2.47;;;1.80;;
37831;SDS011;23671;38.090;-122.570;2023-04-29T04:05:42;1.80;;;1.70;;
37831;SDS011;23671;38.090;-122.570;2023-04-29T04:08:09;2.03;;;1.50;;
37831;SDS011;23671;38.090;-122.570;2023-04-29T04:10:36;1.80;;;1.70;;
37831;SDS011;23671;38.090;-122.570;2023-04-29T04:13:03;1.70;;;1.40;;
37831;SDS011;23671;38.090;-122.570;2023-04-29T04:15:30;1.83;;;1.70;;
37831;SDS011;23671;38.090;-122.570;2023-04-29T04:17:57;2.17;;;1.67;;
37831;SDS011;23671;38.090;-122.570;2023-04-29T04:20:24;2.03;;;1.52;;
37831;SDS011;23671;38.090;-122.570;2023-04-29T04:22:51;2.42;;;1.40;;
37831;SDS011;23671;38.090;-122.570;2023-04-29T04:25:19;1.90;;;1.60;;
37831;SDS011;23671;38.090;-122.570;2023-04-29T04:27:46;2.60;;;1.48;;
37831;SDS011;23671;38.090;-122.570;2023-04-29T04:30:13;2.13;;;1.40;;
37831;SDS011;23671;38.090;-122.570;2023-04-29T04:32:40;1.75;;;1.42;;
37831;SDS011;23671;38.090;-122.570;2023-04-29T04:35:07;1.30;;;1.20;;
37831;SDS011;23671;38.090;-122.570;2023-04-29T04:37:34;1.70;;;1.30;;
37831;SDS011;23671;38.090;-122.570;2023-04-29T04:40:02;2.10;;;1.60;;
37831;SDS011;23671;38.090;-122.570;2023-04-29T04:42:29;1.98;;;1.17;;
37831;SDS011;23671;38.090;-122.570;2023-04-29T04:44:56;1.52;;;1.10;;
37831;SDS011;23671;38.090;-122.570;2023-04-29T04:47:23;1.77;;;1.20;;
37831;SDS011;23671;38.090;-122.570;2023-04-29T04:49:50;1.08;;;0.98;;
37831;SDS011;23671;38.090;-122.570;2023-04-29T04:52:20;2.58;;;1.00;;
37831;SDS011;23671;38.090;-122.570;2023-04-29T04:54:47;1.20;;;1.10;;
37831;SDS011;23671;38.090;-122.570;2023-04-29T04:57:14;1.10;;;1.00;;
37831;SDS011;23671;38.090;-122.570;2023-04-29T04:59:41;1.13;;;1.02;;
37831;SDS011;23671;38.090;-122.570;2023-04-29T05:02:08;1.80;;;1.20;;
37831;SDS011;23671;38.090;-122.570;2023-04-29T05:04:35;1.00;;;0.90;;
37831;SDS011;23671;38.090;-122.570;2023-04-29T05:07:02;0.93;;;0.93;;
37831;SDS011;23671;38.090;-122.570;2023-04-29T05:09:29;1.27;;;1.10;;
37831;SDS011;23671;38.090;-122.570;2023-04-29T05:11:57;1.38;;;1.15;;
37831;SDS011;23671;38.090;-122.570;2023-04-29T05:14:24;1.30;;;0.90;;
37831;SDS011;23671;38.090;-122.570;2023-04-29T05:16:51;2.10;;;0.98;;
37831;SDS011;23671;38.090;-122.570;2023-04-29T05:19:22;1.25;;;0.98;;
37831;SDS011;23671;38.090;-122.570;2023-04-29T05:21:49;1.10;;;1.02;;
37831;SDS011;23671;38.090;-122.570;2023-04-29T05:24:17;1.80;;;0.77;;
37831;SDS011;23671;38.090;-122.570;2023-04-29T05:26:44;1.02;;;0.93;;
37831;SDS011;23671;38.090;-122.570;2023-04-29T05:29:11;0.95;;;0.85;;
37831;SDS011;23671;38.090;-122.570;2023-04-29T05:31:39;1.80;;;0.80;;
37831;SDS011;23671;38.090;-122.570;2023-04-29T05:34:06;1.30;;;0.70;;
37831;SDS011;23671;38.090;-122.570;2023-04-29T05:36:33;0.80;;;0.80;;
37831;SDS011;23671;38.090;-122.570;2023-04-29T05:39:00;0.70;;;0.70;;
37831;SDS011;23671;38.090;-122.570;2023-04-29T05:41:27;0.93;;;0.70;;
37831;SDS011;23671;38.090;-122.570;2023-04-29T05:43:54;2.20;;;0.95;;
37831;SDS011;23671;38.090;-122.570;2023-04-29T05:46:21;1.50;;;0.80;;
37831;SDS011;23671;38.090;-122.570;2023-04-29T05:48:48;1.65;;;0.70;;
37831;SDS011;23671;38.090;-122.570;2023-04-29T05:51:15;1.23;;;1.10;;
37831;SDS011;23671;38.090;-122.570;2023-04-29T05:53:42;1.60;;;0.88;;
37831;SDS011;23671;38.090;-122.570;2023-04-29T05:56:09;0.52;;;0.52;;
37831;SDS011;23671;38.090;-122.570;2023-04-29T05:58:36;0.73;;;0.50;;
37831;SDS011;23671;38.090;-122.570;2023-04-29T06:01:03;0.75;;;0.50;;
37831;SDS011;23671;38.090;-122.570;2023-04-29T06:03:30;0.95;;;0.60;;
37831;SDS011;23671;38.090;-122.570;2023-04-29T06:05:58;2.03;;;0.70;;
37831;SDS011;23671;38.090;-122.570;2023-04-29T06:08:26;1.02;;;0.60;;
37831;SDS011;23671;38.090;-122.570;2023-04-29T06:10:53;0.77;;;0.68;;
37831;SDS011;23671;38.090;-122.570;2023-04-29T06:13:20;0.52;;;0.52;;
37831;SDS011;23671;38.090;-122.570;2023-04-29T06:15:47;0.90;;;0.57;;
37831;SDS011;23671;38.090;-122.570;2023-04-29T06:18:15;0.60;;;0.60;;
37831;SDS011;23671;38.090;-122.570;2023-04-29T06:20:44;0.73;;;0.47;;
37831;SDS011;23671;38.090;-122.570;2023-04-29T06:23:11;2.13;;;0.70;;
37831;SDS011;23671;38.090;-122.570;2023-04-29T06:25:38;1.50;;;0.75;;
37831;SDS011;23671;38.090;-122.570;2023-04-29T06:28:05;0.63;;;0.50;;
37831;SDS011;23671;38.090;-122.570;2023-04-29T06:30:32;2.33;;;1.10;;
37831;SDS011;23671;38.090;-122.570;2023-04-29T06:32:59;0.50;;;0.50;;
37831;SDS011;23671;38.090;-122.570;2023-04-29T06:35:26;0.50;;;0.50;;
37831;SDS011;23671;38.090;-122.570;2023-04-29T06:37:53;0.40;;;0.40;;
37831;SDS011;23671;38.090;-122.570;2023-04-29T06:40:23;1.00;;;0.60;;
37831;SDS011;23671;38.090;-122.570;2023-04-29T06:42:51;0.38;;;0.38;;
37831;SDS011;23671;38.090;-122.570;2023-04-29T06:45:18;2.70;;;0.52;;
37831;SDS011;23671;38.090;-122.570;2023-04-29T06:47:45;0.43;;;0.32;;
37831;SDS011;23671;38.090;-122.570;2023-04-29T06:50:12;0.47;;;0.47;;
37831;SDS011;23671;38.090;-122.570;2023-04-29T06:52:39;0.45;;;0.45;;
37831;SDS011;23671;38.090;-122.570;2023-04-29T06:55:06;0.70;;;0.43;;
37831;SDS011;23671;38.090;-122.570;2023-04-29T06:57:33;0.57;;;0.40;;
37831;SDS011;23671;38.090;-122.570;2023-04-29T07:00:01;0.75;;;0.30;;
37831;SDS011;23671;38.090;-122.570;2023-04-29T07:02:28;1.10;;;0.65;;
37831;SDS011;23671;38.090;-122.570;2023-04-29T07:04:55;1.08;;;0.40;;
37831;SDS011;23671;38.090;-122.570;2023-04-29T07:07:23;0.82;;;0.47;;
37831;SDS011;23671;38.090;-122.570;2023-04-29T07:09:50;0.57;;;0.40;;
37831;SDS011;23671;38.090;-122.570;2023-04-29T07:12:18;0.30;;;0.30;;
37831;SDS011;23671;38.090;-122.570;2023-04-29T07:14:45;0.60;;;0.50;;
37831;SDS011;23671;38.090;-122.570;2023-04-29T07:17:12;0.70;;;0.40;;
37831;SDS011;23671;38.090;-122.570;2023-04-29T07:19:39;0.30;;;0.30;;
37831;SDS011;23671;38.090;-122.570;2023-04-29T07:22:07;0.70;;;0.40;;
37831;SDS011;23671;38.090;-122.570;2023-04-29T07:24:35;0.30;;;0.30;;
37831;SDS011;23671;38.090;-122.570;2023-04-29T07:27:02;0.40;;;0.40;;
37831;SDS011;23671;38.090;-122.570;2023-04-29T07:29:33;0.80;;;0.40;;
37831;SDS011;23671;38.090;-122.570;2023-04-29T07:32:00;0.20;;;0.20;;
37831;SDS011;23671;38.090;-122.570;2023-04-29T07:34:27;0.30;;;0.30;;
37831;SDS011;23671;38.090;-122.570;2023-04-29T07:36:54;0.90;;;0.50;;
37831;SDS011;23671;38.090;-122.570;2023-04-29T07:39:21;0.93;;;0.40;;
37831;SDS011;23671;38.090;-122.570;2023-04-29T07:41:51;0.20;;;0.20;;
37831;SDS011;23671;38.090;-122.570;2023-04-29T07:44:24;0.55;;;0.35;;
37831;SDS011;23671;38.090;-122.570;2023-04-29T07:46:51;0.55;;;0.32;;
37831;SDS011;23671;38.090;-122.570;2023-04-29T07:49:18;0.20;;;0.20;;
37831;SDS011;23671;38.090;-122.570;2023-04-29T07:51:45;0.40;;;0.40;;
37831;SDS011;23671;38.090;-122.570;2023-04-29T07:54:12;0.30;;;0.30;;
37831;SDS011;23671;38.090;-122.570;2023-04-29T07:56:40;1.17;;;0.57;;
37831;SDS011;23671;38.090;-122.570;2023-04-29T07:59:07;0.40;;;0.28;;
37831;SDS011;23671;38.090;-122.570;2023-04-29T08:01:34;0.35;;;0.30;;
37831;SDS011;23671;38.090;-122.570;2023-04-29T08:04:01;0.25;;;0.25;;
37831;SDS011;23671;38.090;-122.570;2023-04-29T08:06:28;0.50;;;0.50;;
37831;SDS011;23671;38.090;-122.570;2023-04-29T08:08:56;0.40;;;0.40;;
37831;SDS011;23671;38.090;-122.570;2023-04-29T08:11:23;0.20;;;0.20;;
37831;SDS011;23671;38.090;-122.570;2023-04-29T08:13:52;0.27;;;0.27;;
37831;SDS011;23671;38.090;-122.570;2023-04-29T08:16:21;0.30;;;0.30;;
37831;SDS011;23671;38.090;-122.570;2023-04-29T08:18:50;0.75;;;0.65;;
37831;SDS011;23671;38.090;-122.570;2023-04-29T08:21:17;0.30;;;0.20;;
37831;SDS011;23671;38.090;-122.570;2023-04-29T08:23:44;0.35;;;0.30;;
37831;SDS011;23671;38.090;-122.570;2023-04-29T08:26:11;0.57;;;0.30;;
37831;SDS011;23671;38.090;-122.570;2023-04-29T08:28:38;0.38;;;0.20;;
37831;SDS011;23671;38.090;-122.570;2023-04-29T08:31:06;1.13;;;0.90;;
37831;SDS011;23671;38.090;-122.570;2023-04-29T08:33:37;1.25;;;0.40;;
37831;SDS011;23671;38.090;-122.570;2023-04-29T08:36:05;0.40;;;0.30;;
37831;SDS011;23671;38.090;-122.570;2023-04-29T08:38:32;0.30;;;0.30;;
37831;SDS011;23671;38.090;-122.570;2023-04-29T08:41:00;0.30;;;0.30;;
37831;SDS011;23671;38.090;-122.570;2023-04-29T08:43:27;0.32;;;0.32;;
37831;SDS011;23671;38.090;-122.570;2023-04-29T08:45:55;0.73;;;0.30;;
37831;SDS011;23671;38.090;-122.570;2023-04-29T08:50:51;1.30;;;0.20;;
37831;SDS011;23671;38.090;-122.570;2023-04-29T08:53:18;0.32;;;0.32;;
37831;SDS011;23671;38.090;-122.570;2023-04-29T08:55:46;0.30;;;0.30;;
37831;SDS011;23671;38.090;-122.570;2023-04-29T08:58:14;0.57;;;0.30;;
37831;SDS011;23671;38.090;-122.570;2023-04-29T09:00:42;0.45;;;0.40;;
37831;SDS011;23671;38.090;-122.570;2023-04-29T09:05:37;0.38;;;0.38;;
37831;SDS011;23671;38.090;-122.570;2023-04-29T09:08:07;0.30;;;0.30;;
37831;SDS011;23671;38.090;-122.570;2023-04-29T09:10:35;0.32;;;0.32;;
37831;SDS011;23671;38.090;-122.570;2023-04-29T09:13:28;0.63;;;0.40;;
37831;SDS011;23671;38.090;-122.570;2023-04-29T09:15:56;0.30;;;0.30;;
37831;SDS011;23671;38.090;-122.570;2023-04-29T09:21:17;0.47;;;0.30;;
37831;SDS011;23671;38.090;-122.570;2023-04-29T09:23:46;0.45;;;0.38;;
37831;SDS011;23671;38.090;-122.570;2023-04-29T09:26:15;0.93;;;0.28;;
37831;SDS011;23671;38.090;-122.570;2023-04-29T09:28:42;0.82;;;0.30;;
37831;SDS011;23671;38.090;-122.570;2023-04-29T09:31:12;0.38;;;0.38;;
37831;SDS011;23671;38.090;-122.570;2023-04-29T09:33:52;0.30;;;0.30;;
37831;SDS011;23671;38.090;-122.570;2023-04-29T09:39:23;0.40;;;0.30;;
37831;SDS011;23671;38.090;-122.570;2023-04-29T09:44:21;2.17;;;0.50;;
37831;SDS011;23671;38.090;-122.570;2023-04-29T09:46:56;0.45;;;0.40;;
37831;SDS011;23671;38.090;-122.570;2023-04-29T09:52:09;0.93;;;0.30;;
37831;SDS011;23671;38.090;-122.570;2023-04-29T09:54:38;0.30;;;0.30;;
37831;SDS011;23671;38.090;-122.570;2023-04-29T09:57:07;0.40;;;0.40;;
37831;SDS011;23671;38.090;-122.570;2023-04-29T09:59:37;0.30;;;0.30;;
37831;SDS011;23671;38.090;-122.570;2023-04-29T10:02:14;0.25;;;0.25;;
37831;SDS011;23671;38.090;-122.570;2023-04-29T10:04:45;0.50;;;0.50;;
37831;SDS011;23671;38.090;-122.570;2023-04-29T10:07:18;0.40;;;0.40;;
37831;SDS011;23671;38.090;-122.570;2023-04-29T10:09:46;0.28;;;0.28;;
37831;SDS011;23671;38.090;-122.570;2023-04-29T10:12:18;0.40;;;0.35;;
37831;SDS011;23671;38.090;-122.570;2023-04-29T10:20:09;0.20;;;0.20;;
37831;SDS011;23671;38.090;-122.570;2023-04-29T10:22:49;0.50;;;0.45;;
37831;SDS011;23671;38.090;-122.570;2023-04-29T10:25:19;0.28;;;0.28;;
37831;SDS011;23671;38.090;-122.570;2023-04-29T10:27:49;1.25;;;0.17;;
37831;SDS011;23671;38.090;-122.570;2023-04-29T10:32:46;0.35;;;0.35;;
37831;SDS011;23671;38.090;-122.570;2023-04-29T10:35:14;0.30;;;0.30;;
37831;SDS011;23671;38.090;-122.570;2023-04-29T10:37:47;0.40;;;0.40;;
37831;SDS011;23671;38.090;-122.570;2023-04-29T10:43:00;1.55;;;0.40;;
37831;SDS011;23671;38.090;-122.570;2023-04-29T10:45:30;0.73;;;0.20;;
37831;SDS011;23671;38.090;-122.570;2023-04-29T10:53:17;1.55;;;0.40;;
37831;SDS011;23671;38.090;-122.570;2023-04-29T10:55:49;0.20;;;0.20;;
37831;SDS011;23671;38.090;-122.570;2023-04-29T11:01:00;0.30;;;0.30;;
37831;SDS011;23671;38.090;-122.570;2023-04-29T11:11:47;0.25;;;0.25;;
37831;SDS011;23671;38.090;-122.570;2023-04-29T11:14:56;0.20;;;0.20;;
37831;SDS011;23671;38.090;-122.570;2023-04-29T11:17:16;1.05;;;0.60;;
37831;SDS011;23671;38.090;-122.570;2023-04-29T11:19:45;0.30;;;0.30;;
37831;SDS011;23671;38.090;-122.570;2023-04-29T11:27:28;0.30;;;0.30;;
37831;SDS011;23671;38.090;-122.570;2023-04-29T11:30:03;0.20;;;0.20;;
37831;SDS011;23671;38.090;-122.570;2023-04-29T11:32:35;0.20;;;0.20;;
37831;SDS011;23671;38.090;-122.570;2023-04-29T11:35:10;0.22;;;0.22;;
37831;SDS011;23671;38.090;-122.570;2023-04-29T11:37:39;0.80;;;0.20;;
37831;SDS011;23671;38.090;-122.570;2023-04-29T11:40:08;0.22;;;0.22;;
37831;SDS011;23671;38.090;-122.570;2023-04-29T11:42:42;0.30;;;0.30;;
37831;SDS011;23671;38.090;-122.570;2023-04-29T11:45:13;0.30;;;0.30;;
37831;SDS011;23671;38.090;-122.570;2023-04-29T11:47:44;0.17;;;0.17;;
37831;SDS011;23671;38.090;-122.570;2023-04-29T11:50:12;0.30;;;0.30;;
37831;SDS011;23671;38.090;-122.570;2023-04-29T11:55:09;0.30;;;0.30;;
37831;SDS011;23671;38.090;-122.570;2023-04-29T11:57:37;0.20;;;0.20;;
37831;SDS011;23671;38.090;-122.570;2023-04-29T12:00:07;0.90;;;0.30;;
37831;SDS011;23671;38.090;-122.570;2023-04-29T12:02:36;0.20;;;0.20;;
37831;SDS011;23671;38.090;-122.570;2023-04-29T12:05:05;0.30;;;0.30;;
37831;SDS011;23671;38.090;-122.570;2023-04-29T12:07:37;0.30;;;0.25;;
37831;SDS011;23671;38.090;-122.570;2023-04-29T12:10:08;0.20;;;0.20;;
37831;SDS011;23671;38.090;-122.570;2023-04-29T12:12:36;2.10;;;0.30;;
37831;SDS011;23671;38.090;-122.570;2023-04-29T12:17:32;0.43;;;0.30;;
37831;SDS011;23671;38.090;-122.570;2023-04-29T12:20:00;0.88;;;0.45;;
37831;SDS011;23671;38.090;-122.570;2023-04-29T12:22:31;0.40;;;0.40;;
37831;SDS011;23671;38.090;-122.570;2023-04-29T12:24:58;0.43;;;0.40;;
37831;SDS011;23671;38.090;-122.570;2023-04-29T12:27:28;0.30;;;0.30;;
37831;SDS011;23671;38.090;-122.570;2023-04-29T12:29:55;0.40;;;0.40;;
37831;SDS011;23671;38.090;-122.570;2023-04-29T12:32:23;0.52;;;0.30;;
37831;SDS011;23671;38.090;-122.570;2023-04-29T12:34:51;0.95;;;0.40;;
37831;SDS011;23671;38.090;-122.570;2023-04-29T12:37:18;0.30;;;0.30;;
37831;SDS011;23671;38.090;-122.570;2023-04-29T12:39:48;0.80;;;0.40;;
37831;SDS011;23671;38.090;-122.570;2023-04-29T12:44:46;0.40;;;0.30;;
37831;SDS011;23671;38.090;-122.570;2023-04-29T12:47:13;0.45;;;0.43;;
37831;SDS011;23671;38.090;-122.570;2023-04-29T12:49:45;1.05;;;0.30;;
37831;SDS011;23671;38.090;-122.570;2023-04-29T12:52:13;0.38;;;0.20;;
37831;SDS011;23671;38.090;-122.570;2023-04-29T12:54:40;0.40;;;0.40;;
37831;SDS011;23671;38.090;-122.570;2023-04-29T12:57:11;0.85;;;0.40;;
37831;SDS011;23671;38.090;-122.570;2023-04-29T12:59:38;0.35;;;0.30;;
37831;SDS011;23671;38.090;-122.570;2023-04-29T13:02:06;0.30;;;0.30;;
37831;SDS011;23671;38.090;-122.570;2023-04-29T13:04:33;0.75;;;0.30;;
37831;SDS011;23671;38.090;-122.570;2023-04-29T13:07:00;0.20;;;0.20;;
37831;SDS011;23671;38.090;-122.570;2023-04-29T13:09:28;0.52;;;0.47;;
37831;SDS011;23671;38.090;-122.570;2023-04-29T13:11:55;0.55;;;0.20;;
37831;SDS011;23671;38.090;-122.570;2023-04-29T13:14:23;0.93;;;0.38;;
37831;SDS011;23671;38.090;-122.570;2023-04-29T13:16:50;0.57;;;0.22;;
37831;SDS011;23671;38.090;-122.570;2023-04-29T13:19:17;0.30;;;0.30;;
37831;SDS011;23671;38.090;-122.570;2023-04-29T13:21:45;1.77;;;0.47;;
37831;SDS011;23671;38.090;-122.570;2023-04-29T13:24:12;0.32;;;0.32;;
37831;SDS011;23671;38.090;-122.570;2023-04-29T13:26:42;1.25;;;0.30;;
37831;SDS011;23671;38.090;-122.570;2023-04-29T13:29:09;0.35;;;0.35;;
37831;SDS011;23671;38.090;-122.570;2023-04-29T13:31:36;0.30;;;0.30;;
37831;SDS011;23671;38.090;-122.570;2023-04-29T13:34:03;0.40;;;0.30;;
37831;SDS011;23671;38.090;-122.570;2023-04-29T13:36:30;0.40;;;0.40;;
37831;SDS011;23671;38.090;-122.570;2023-04-29T13:38:57;0.40;;;0.40;;
37831;SDS011;23671;38.090;-122.570;2023-04-29T13:41:24;1.15;;;0.60;;
37831;SDS011;23671;38.090;-122.570;2023-04-29T13:43:52;0.20;;;0.20;;
37831;SDS011;23671;38.090;-122.570;2023-04-29T13:46:19;0.25;;;0.25;;
37831;SDS011;23671;38.090;-122.570;2023-04-29T13:48:47;1.02;;;0.43;;
37831;SDS011;23671;38.090;-122.570;2023-04-29T13:51:14;0.30;;;0.30;;
37831;SDS011;23671;38.090;-122.570;2023-04-29T13:53:41;0.65;;;0.30;;
37831;SDS011;23671;38.090;-122.570;2023-04-29T13:56:08;0.30;;;0.30;;
37831;SDS011;23671;38.090;-122.570;2023-04-29T13:58:35;0.43;;;0.43;;
37831;SDS011;23671;38.090;-122.570;2023-04-29T14:01:02;0.30;;;0.30;;
37831;SDS011;23671;38.090;-122.570;2023-04-29T14:03:29;0.30;;;0.30;;
37831;SDS011;23671;38.090;-122.570;2023-04-29T14:05:56;0.38;;;0.38;;
37831;SDS011;23671;38.090;-122.570;2023-04-29T14:08:23;0.40;;;0.40;;
37831;SDS011;23671;38.090;-122.570;2023-04-29T14:10:50;0.40;;;0.38;;
37831;SDS011;23671;38.090;-122.570;2023-04-29T14:13:17;0.77;;;0.40;;
37831;SDS011;23671;38.090;-122.570;2023-04-29T14:15:44;0.63;;;0.40;;
37831;SDS011;23671;38.090;-122.570;2023-04-29T14:18:11;0.50;;;0.40;;
37831;SDS011;23671;38.090;-122.570;2023-04-29T14:20:38;0.40;;;0.40;;
37831;SDS011;23671;38.090;-122.570;2023-04-29T14:23:05;0.38;;;0.32;;
37831;SDS011;23671;38.090;-122.570;2023-04-29T14:25:32;0.40;;;0.40;;
37831;SDS011;23671;38.090;-122.570;2023-04-29T14:27:59;0.30;;;0.30;;
37831;SDS011;23671;38.090;-122.570;2023-04-29T14:30:26;0.20;;;0.20;;
37831;SDS011;23671;38.090;-122.570;2023-04-29T14:32:54;0.40;;;0.40;;
37831;SDS011;23671;38.090;-122.570;2023-04-29T14:35:21;0.55;;;0.30;;
37831;SDS011;23671;38.090;-122.570;2023-04-29T14:37:48;0.30;;;0.30;;
37831;SDS011;23671;38.090;-122.570;2023-04-29T14:40:16;0.28;;;0.28;;
37831;SDS011;23671;38.090;-122.570;2023-04-29T14:42:42;0.40;;;0.30;;
37831;SDS011;23671;38.090;-122.570;2023-04-29T14:45:09;0.40;;;0.32;;
37831;SDS011;23671;38.090;-122.570;2023-04-29T14:47:37;0.65;;;0.25;;
37831;SDS011;23671;38.090;-122.570;2023-04-29T14:50:04;0.30;;;0.30;;
37831;SDS011;23671;38.090;-122.570;2023-04-29T14:52:31;0.30;;;0.30;;
37831;SDS011;23671;38.090;-122.570;2023-04-29T14:54:58;0.20;;;0.20;;
37831;SDS011;23671;38.090;-122.570;2023-04-29T14:57:26;0.32;;;0.30;;
37831;SDS011;23671;38.090;-122.570;2023-04-29T14:59:54;0.43;;;0.40;;
37831;SDS011;23671;38.090;-122.570;2023-04-29T15:02:21;0.47;;;0.40;;
37831;SDS011;23671;38.090;-122.570;2023-04-29T15:04:48;0.73;;;0.43;;
37831;SDS011;23671;38.090;-122.570;2023-04-29T15:07:15;0.10;;;0.10;;
37831;SDS011;23671;38.090;-122.570;2023-04-29T15:09:42;0.30;;;0.30;;
37831;SDS011;23671;38.090;-122.570;2023-04-29T15:12:10;0.50;;;0.50;;
37831;SDS011;23671;38.090;-122.570;2023-04-29T15:14:38;0.33;;;0.33;;
37831;SDS011;23671;38.090;-122.570;2023-04-29T15:17:05;0.65;;;0.40;;
37831;SDS011;23671;38.090;-122.570;2023-04-29T15:19:32;0.55;;;0.28;;